Time;durP1;ratioP1;P1;durP2;ratioP2;P2;SDS_P1;SDS_P2;PMS_P1;PMS_P2;Temp;Humidity;BMP_temperature;BMP_pressure;BME280_temperature;BME280_humidity;BME280_pressure;Samples;Min_cycle;Max_cycle;Signal;HPM_P1;HPM_P2
2021/11/05 00:04:13;;;;;;;18.85;12.13;;;;;;;6.53;95.05;100370.00;20810457;28;20104;-74
2021/11/05 00:14:14;;;;;;;16.50;10.65;;;;;;;6.54;95.15;100365.66;20810132;28;20067;-74
2021/11/05 00:24:15;;;;;;;15.00;10.07;;;;;;;6.49;95.03;100376.06;20809113;28;20499;-73
2021/11/05 00:34:17;;;;;;;17.27;10.65;;;;;;;6.50;95.43;100389.94;20808187;28;20103;-72
2021/11/05 00:44:19;;;;;;;18.05;11.32;;;;;;;6.43;95.14;100389.94;20808441;28;20057;-72
2021/11/05 00:54:20;;;;;;;19.73;11.30;;;;;;;6.41;95.39;100407.25;20808163;28;20119;-72
2021/11/05 01:04:22;;;;;;;17.73;11.50;;;;;;;6.36;95.32;100403.78;20805907;28;20053;-71
2021/11/05 01:14:23;;;;;;;16.95;10.82;;;;;;;6.33;95.97;100409.00;20806163;28;20099;-71
2021/11/05 01:24:25;;;;;;;15.48;10.88;;;;;;;6.35;95.34;100419.38;20805705;28;20123;-73
2021/11/05 01:34:27;;;;;;;22.17;11.07;;;;;;;6.45;95.60;100433.28;20804507;28;20041;-74
2021/11/05 01:44:29;;;;;;;15.77;10.63;;;;;;;6.47;95.04;100427.22;20804905;28;20287;-74
2021/11/05 01:54:31;;;;;;;16.60;11.05;;;;;;;6.43;95.84;100428.94;20804663;28;20215;-73
2021/11/05 02:04:33;;;;;;;15.23;9.85;;;;;;;6.47;95.45;100445.44;20804437;28;20111;-73
2021/11/05 02:14:35;;;;;;;15.77;9.77;;;;;;;6.44;95.82;100448.00;20821190;28;20465;-73
2021/11/05 02:24:36;;;;;;;16.33;9.63;;;;;;;6.45;95.83;100452.34;20819224;28;20053;-72
2021/11/05 02:34:39;;;;;;;15.05;9.23;;;;;;;6.39;95.90;100466.19;20817972;28;20072;-71
2021/11/05 02:44:41;;;;;;;14.13;9.32;;;;;;;6.45;95.17;100475.75;20817642;28;20049;-71
2021/11/05 02:54:43;;;;;;;14.30;8.98;;;;;;;6.42;95.45;100488.78;20816904;28;20081;-73
2021/11/05 03:04:45;;;;;;;14.85;9.43;;;;;;;6.48;95.00;100488.78;20815343;28;20506;-71
2021/11/05 03:14:47;;;;;;;16.00;9.85;;;;;;;6.52;95.40;100492.25;20815464;28;20053;-70
2021/11/05 03:24:48;;;;;;;13.75;8.93;;;;;;;6.41;95.47;100508.69;20813779;28;20050;-70
2021/11/05 03:34:50;;;;;;;17.40;9.50;;;;;;;6.52;94.54;100529.53;20813561;28;20045;-71
2021/11/05 03:44:51;;;;;;;15.73;10.23;;;;;;;6.48;95.49;100543.41;20813187;28;20057;-70
2021/11/05 03:54:53;;;;;;;16.52;9.65;;;;;;;6.59;94.57;100561.63;20812501;28;20422;-70
2021/11/05 04:04:55;;;;;;;16.80;10.18;;;;;;;6.47;95.98;100588.47;20811050;28;20041;-71
2021/11/05 04:14:57;;;;;;;17.63;10.55;;;;;;;6.54;95.54;100594.56;20810693;28;20048;-71
2021/11/05 04:24:58;;;;;;;17.25;10.23;;;;;;;6.56;95.54;100605.84;20809224;28;20100;-70
2021/11/05 04:35:00;;;;;;;18.75;11.45;;;;;;;6.60;95.84;100613.66;20807559;28;20037;-70
2021/11/05 04:45:02;;;;;;;18.58;10.50;;;;;;;6.62;95.61;100624.09;20806622;28;20053;-70
2021/11/05 04:55:06;;;;;;;18.35;10.60;;;;;;;6.61;95.50;100637.94;20808022;28;20046;-70
2021/11/05 05:05:07;;;;;;;18.17;10.98;;;;;;;6.55;95.96;100643.97;20804425;28;20057;-72
2021/11/05 05:15:11;;;;;;;19.05;11.05;;;;;;;6.57;95.95;100657.88;20806304;28;20045;-73
2021/11/05 05:25:15;;;;;;;16.20;10.83;;;;;;;6.54;96.16;100663.06;20805185;28;20387;-73
2021/11/05 05:35:18;;;;;;;16.25;10.43;;;;;;;6.56;96.09;100674.34;20804407;28;20049;-71
2021/11/05 05:45:21;;;;;;;16.83;10.73;;;;;;;6.61;96.14;100688.28;20823630;28;20116;-72
2021/11/05 05:55:25;;;;;;;17.35;11.05;;;;;;;6.58;95.93;100703.84;20832805;28;20103;-71
2021/11/05 06:05:29;;;;;;;23.52;11.68;;;;;;;6.61;95.83;100715.97;20831908;28;20053;-71
2021/11/05 06:15:31;;;;;;;19.08;11.82;;;;;;;6.55;95.83;100719.44;20831370;28;20054;-71
2021/11/05 06:25:33;;;;;;;17.75;10.48;;;;;;;6.56;95.97;100728.97;20829909;28;20103;-72
2021/11/05 06:35:34;;;;;;;15.45;10.07;;;;;;;6.59;95.92;100761.94;20829935;28;20052;-71
2021/11/05 06:45:36;;;;;;;20.65;11.75;;;;;;;6.68;96.27;100782.81;20830411;28;20053;-70
2021/11/05 06:55:38;;;;;;;22.85;11.43;;;;;;;6.69;95.26;100807.97;20822620;28;20049;-70
2021/11/05 07:05:39;;;;;;;16.90;11.05;;;;;;;6.78;95.18;100823.66;20815146;28;20049;-69
2021/11/05 07:15:41;;;;;;;15.25;9.77;;;;;;;6.79;95.85;100851.41;20815435;28;20049;-70
2021/11/05 07:25:42;;;;;;;17.40;10.93;;;;;;;6.94;94.91;100863.66;20814306;28;20111;-70
2021/11/05 07:35:44;;;;;;;18.35;10.82;;;;;;;7.01;95.07;100877.59;20813461;28;20080;-70
2021/11/05 07:45:45;;;;;;;17.55;10.90;;;;;;;7.19;94.98;100898.56;20812597;28;20095;-70
2021/11/05 07:55:47;;;;;;;16.10;10.35;;;;;;;7.37;94.08;100919.47;20793963;28;20481;-70
2021/11/05 08:05:49;;;;;;;16.98;10.23;;;;;;;7.57;93.68;100952.59;20774513;28;20576;-70
2021/11/05 08:15:50;;;;;;;16.20;10.20;;;;;;;7.69;93.10;100963.94;20769250;28;20046;-69
2021/11/05 08:25:52;;;;;;;14.45;10.23;;;;;;;7.76;93.14;100980.53;20768821;28;20106;-69
2021/11/05 08:35:53;;;;;;;20.15;11.20;;;;;;;8.00;92.44;101004.94;20775461;28;20405;-70
2021/11/05 08:45:55;;;;;;;19.92;11.13;;;;;;;8.16;92.38;101006.75;20798894;28;20478;-69
2021/11/05 08:55:57;;;;;;;15.32;9.57;;;;;;;8.10;91.86;101023.25;20805928;28;20045;-69
2021/11/05 09:06:00;;;;;;;15.98;9.38;;;;;;;8.22;91.99;101040.69;20803854;28;20423;-69
2021/11/05 09:16:03;;;;;;;15.20;10.25;;;;;;;8.52;90.30;101054.75;20803434;28;20058;-69
2021/11/05 09:26:05;;;;;;;14.43;8.77;;;;;;;8.57;90.91;101066.06;20802354;28;20095;-69
2021/11/05 09:36:06;;;;;;;17.48;10.07;;;;;;;8.67;90.59;101083.50;20802568;28;20057;-69
2021/11/05 09:46:09;;;;;;;14.23;8.88;;;;;;;8.72;90.46;101103.56;20801539;28;20045;-69
2021/11/05 09:56:14;;;;;;;14.38;8.07;;;;;;;8.76;90.67;101108.75;20801968;28;20044;-69
2021/11/05 10:06:19;;;;;;;17.40;9.23;;;;;;;9.04;88.90;101122.78;20801208;28;20049;-69
2021/11/05 10:16:24;;;;;;;18.67;9.77;;;;;;;9.21;87.80;101129.78;20800473;28;20056;-69
2021/11/05 10:26:32;;;;;;;15.30;8.87;;;;;;;9.36;86.53;101139.38;20802979;28;20041;-68
2021/11/05 10:36:34;;;;;;;15.07;9.43;;;;;;;9.22;86.39;101151.53;20815234;28;20077;-68
2021/11/05 10:46:41;;;;;;;18.77;10.10;;;;;;;9.12;85.67;101149.78;20814964;28;20049;-68
2021/11/05 10:56:45;;;;;;;15.65;9.65;;;;;;;9.27;86.45;101155.03;20816993;28;20132;-68
2021/11/05 11:06:47;;;;;;;16.55;9.85;;;;;;;9.58;83.60;101161.19;20815575;28;20057;-68
2021/11/05 11:17:00;;;;;;;14.82;9.55;;;;;;;9.67;81.69;101169.00;20814512;28;20107;-68
2021/11/05 11:27:06;;;;;;;14.32;9.57;;;;;;;9.90;81.34;101168.13;20813048;28;20041;-68
2021/11/05 11:37:26;;;;;;;16.57;9.67;;;;;;;9.83;80.09;101171.66;20811437;28;20050;-68
2021/11/05 11:47:41;;;;;;;15.02;9.10;;;;;;;9.96;80.41;101174.22;20812299;28;20494;-68
2021/11/05 11:57:43;;;;;;;13.47;8.80;;;;;;;9.97;78.91;101173.38;20810821;28;20045;-69
2021/11/05 12:08:13;;;;;;;14.43;9.55;;;;;;;9.90;79.91;101183.84;20810066;28;20507;-69
2021/11/05 12:18:15;;;;;;;11.48;7.43;;;;;;;10.11;82.89;101185.56;20806705;28;20042;-68
2021/11/05 12:28:41;;;;;;;14.18;7.72;;;;;;;10.03;78.50;101196.03;20808220;28;20053;-68
2021/11/05 12:39:01;;;;;;;13.98;8.43;;;;;;;9.91;80.22;101199.53;20807394;28;20060;-68
2021/11/05 12:49:03;;;;;;;12.75;8.13;;;;;;;9.76;81.06;101204.75;20806770;28;20145;-68
2021/11/05 12:59:15;;;;;;;13.40;8.93;;;;;;;10.09;81.51;101210.88;20806046;28;20087;-68
2021/11/05 13:09:26;;;;;;;13.45;8.27;;;;;;;9.97;80.34;101223.09;20804650;28;20045;-68
2021/11/05 13:19:28;;;;;;;13.27;8.80;;;;;;;9.90;80.06;101226.56;20804917;28;20129;-68
2021/11/05 13:29:32;;;;;;;11.45;7.32;;;;;;;10.10;79.35;101229.16;20804630;28;20057;-68
2021/11/05 13:39:33;;;;;;;12.38;7.63;;;;;;;10.13;80.08;101244.88;20803772;28;20053;-67
2021/11/05 13:49:35;;;;;;;10.73;7.35;;;;;;;9.69;81.08;101248.34;20803422;28;20053;-68
2021/11/05 13:59:37;;;;;;;11.55;7.40;;;;;;;9.44;82.20;101257.88;20803971;28;20502;-68
2021/11/05 14:09:39;;;;;;;10.57;6.80;;;;;;;9.44;82.38;101263.13;20817812;28;20421;-70
2021/11/05 14:20:01;;;;;;;11.23;7.18;;;;;;;9.42;83.38;101275.28;20816768;28;20205;-70
2021/11/05 14:30:03;;;;;;;12.65;7.63;;;;;;;9.35;84.91;101290.97;20817087;28;20056;-70
2021/11/05 14:40:26;;;;;;;12.70;7.32;;;;;;;9.48;83.85;101309.28;20816972;28;20049;-69
2021/11/05 14:50:30;;;;;;;9.85;6.70;;;;;;;9.60;82.95;101312.81;20815887;28;20095;-68
2021/11/05 15:00:31;;;;;;;13.68;8.45;;;;;;;9.61;83.53;101322.41;20814971;28;20049;-69
2021/11/05 15:10:36;;;;;;;10.85;7.63;;;;;;;9.57;83.43;101331.97;20814972;28;20077;-69
2021/11/05 15:20:38;;;;;;;11.67;8.17;;;;;;;9.41;85.10;101349.34;20812561;28;20057;-69
2021/11/05 15:30:46;;;;;;;12.98;7.57;;;;;;;9.08;84.89;101362.25;20812056;28;20065;-70
2021/11/05 15:40:50;;;;;;;13.88;7.18;;;;;;;8.81;85.90;101369.03;20813618;28;20053;-72
2021/11/05 15:50:53;;;;;;;12.87;7.73;;;;;;;8.56;90.33;101382.78;20813706;28;20104;-70
2021/11/05 16:00:54;;;;;;;12.35;6.40;;;;;;;8.38;91.79;101381.75;20811065;28;20049;-71
2021/11/05 16:10:56;;;;;;;15.38;8.73;;;;;;;8.27;91.51;101396.41;20809609;28;20049;-71
2021/11/05 16:20:58;;;;;;;14.05;8.48;;;;;;;8.17;93.08;101408.47;20809800;28;20057;-71
2021/11/05 16:31:03;;;;;;;17.60;10.68;;;;;;;7.97;93.61;101402.19;20808417;28;20457;-71
2021/11/05 16:41:05;;;;;;;32.63;17.23;;;;;;;8.03;94.21;101424.84;20806277;28;20099;-72
2021/11/05 16:51:19;;;;;;;19.15;11.63;;;;;;;7.75;93.09;101427.13;20806970;28;20414;-72
2021/11/05 17:01:23;;;;;;;21.83;13.60;;;;;;;7.35;94.78;101434.41;20805917;28;20126;-72
2021/11/05 17:11:25;;;;;;;18.25;12.82;;;;;;;7.08;94.95;101452.25;20804037;28;20091;-74
2021/11/05 17:21:27;;;;;;;17.08;12.23;;;;;;;6.98;95.67;101460.75;20805026;28;20041;-71
2021/11/05 17:31:29;;;;;;;67.60;38.20;;;;;;;6.96;95.82;101458.16;20803819;28;20457;-71
2021/11/05 17:41:31;;;;;;;28.15;17.85;;;;;;;7.03;95.85;101472.13;20802003;28;20461;-70
2021/11/05 17:51:34;;;;;;;22.88;14.95;;;;;;;7.06;95.41;101480.00;20800604;28;20411;-71
2021/11/05 18:01:40;;;;;;;21.95;15.48;;;;;;;7.04;95.42;101494.69;20802002;28;20037;-70
2021/11/05 18:11:45;;;;;;;18.83;12.20;;;;;;;7.05;95.12;101512.09;20793858;28;20045;-71
2021/11/05 18:21:47;;;;;;;18.63;11.82;;;;;;;7.06;95.32;101521.66;20802942;28;20100;-71
2021/11/05 18:31:49;;;;;;;19.48;11.30;;;;;;;7.04;94.68;101544.19;20800611;28;20057;-71
2021/11/05 18:41:53;;;;;;;15.88;10.52;;;;;;;7.04;95.39;101559.81;20803314;28;20481;-71
2021/11/05 18:51:55;;;;;;;20.45;11.80;;;;;;;6.88;95.84;101567.34;20810141;28;20045;-71
2021/11/05 19:01:56;;;;;;;19.60;12.38;;;;;;;6.67;96.06;101579.97;20816011;28;20037;-71
2021/11/05 19:11:58;;;;;;;15.05;9.73;;;;;;;6.36;96.63;101594.97;20813465;28;20049;-70
2021/11/05 19:22:01;;;;;;;16.98;10.48;;;;;;;6.07;96.65;101596.94;20813658;28;20049;-71
2021/11/05 19:32:04;;;;;;;20.15;11.48;;;;;;;5.87;96.82;101603.41;20813070;28;20095;-70
2021/11/05 19:42:05;;;;;;;17.88;10.32;;;;;;;5.72;96.77;101614.31;20811613;28;20046;-70
2021/11/05 19:52:07;;;;;;;23.40;14.52;;;;;;;5.69;96.99;101619.44;20811881;28;20103;-71
2021/11/05 20:02:09;;;;;;;28.23;18.17;;;;;;;5.74;96.70;101623.03;20809012;28;20049;-70
2021/11/05 20:12:23;;;;;;;40.80;26.83;;;;;;;5.80;96.22;101628.38;20807951;28;20566;-71
2021/11/05 20:22:25;;;;;;;33.92;21.75;;;;;;;5.71;95.82;101633.38;20808241;28;20041;-70
2021/11/05 20:32:27;;;;;;;30.17;19.25;;;;;;;5.56;96.43;101635.59;20808775;28;20061;-71
2021/11/05 20:42:28;;;;;;;35.08;20.33;;;;;;;5.54;96.30;101645.06;20805103;28;20057;-70
2021/11/05 20:52:30;;;;;;;34.83;21.13;;;;;;;5.25;97.01;101667.69;20807844;28;20053;-70
2021/11/05 21:02:31;;;;;;;32.25;17.90;;;;;;;5.25;97.94;101672.88;20805041;28;20103;-71
2021/11/05 21:12:34;;;;;;;50.17;28.00;;;;;;;5.24;97.25;101679.81;20803075;28;20385;-70
2021/11/05 21:22:35;;;;;;;33.90;20.42;;;;;;;5.20;96.28;101688.34;20804115;28;20053;-70
2021/11/05 21:32:37;;;;;;;31.50;18.23;;;;;;;5.26;96.79;101690.22;20803636;28;20045;-70
2021/11/05 21:42:40;;;;;;;34.45;20.30;;;;;;;5.30;95.73;101692.06;20802549;28;20072;-70
2021/11/05 21:52:41;;;;;;;37.45;23.42;;;;;;;5.31;95.29;101691.22;20802335;28;20057;-70
2021/11/05 22:02:44;;;;;;;32.17;18.55;;;;;;;5.46;96.66;101701.13;20809596;28;20682;-70
2021/11/05 22:12:47;;;;;;;29.38;17.70;;;;;;;5.59;96.00;101717.06;20808525;28;20107;-70
2021/11/05 22:22:49;;;;;;;26.35;16.23;;;;;;;5.71;97.22;101716.53;20810974;28;20972;-70
2021/11/05 22:32:51;;;;;;;36.70;17.90;;;;;;;5.75;97.23;101718.34;20821978;28;20103;-70
2021/11/05 22:42:53;;;;;;;32.10;17.55;;;;;;;5.83;97.90;101731.53;20821961;28;20049;-74
2021/11/05 22:52:56;;;;;;;26.40;16.50;;;;;;;5.88;97.78;101741.19;20821230;28;20053;-71
2021/11/05 23:02:57;;;;;;;28.73;16.13;;;;;;;5.92;97.07;101747.38;20821555;28;20103;-70
2021/11/05 23:12:59;;;;;;;43.17;22.10;;;;;;;5.94;97.30;101744.81;20827592;28;20065;-73
2021/11/05 23:23:01;;;;;;;41.10;21.30;;;;;;;5.86;96.76;101758.47;20827743;28;20048;-71
2021/11/05 23:33:07;;;;;;;30.55;17.27;;;;;;;5.81;96.76;101741.91;20823723;28;20057;-72
2021/11/05 23:43:09;;;;;;;25.95;16.25;;;;;;;5.87;96.90;101733.38;20826343;28;20091;-71
2021/11/05 23:53:12;;;;;;;31.85;17.33;;;;;;;5.96;96.73;101737.94;20824684;28;20461;-71
